sensor_id;sensor_type;location;lat;lon;timestamp;temperature;humidity
46231;DHT22;31949;51.404;-0.038;2023-09-19T00:00:47;14.50;99.90
46231;DHT22;31949;51.404;-0.038;2023-09-19T00:03:16;14.50;99.90
46231;DHT22;31949;51.404;-0.038;2023-09-19T00:05:43;14.50;99.90
46231;DHT22;31949;51.404;-0.038;2023-09-19T00:08:12;14.50;99.90
46231;DHT22;31949;51.404;-0.038;2023-09-19T00:10:42;14.50;99.90
46231;DHT22;31949;51.404;-0.038;2023-09-19T00:13:10;14.50;99.90
46231;DHT22;31949;51.404;-0.038;2023-09-19T00:15:45;14.50;99.90
46231;DHT22;31949;51.404;-0.038;2023-09-19T00:18:18;14.50;99.90
46231;DHT22;31949;51.404;-0.038;2023-09-19T00:20:49;14.50;99.90
46231;DHT22;31949;51.404;-0.038;2023-09-19T00:23:18;14.50;99.90
46231;DHT22;31949;51.404;-0.038;2023-09-19T00:25:47;14.40;99.90
46231;DHT22;31949;51.404;-0.038;2023-09-19T00:28:14;14.40;99.90
46231;DHT22;31949;51.404;-0.038;2023-09-19T00:30:45;14.50;99.90
46231;DHT22;31949;51.404;-0.038;2023-09-19T00:33:21;14.40;99.90
46231;DHT22;31949;51.404;-0.038;2023-09-19T00:35:50;14.40;99.90
46231;DHT22;31949;51.404;-0.038;2023-09-19T00:38:17;14.40;99.90
46231;DHT22;31949;51.404;-0.038;2023-09-19T00:40:48;14.40;99.90
46231;DHT22;31949;51.404;-0.038;2023-09-19T00:43:16;14.40;99.90
46231;DHT22;31949;51.404;-0.038;2023-09-19T00:45:47;14.40;99.90
46231;DHT22;31949;51.404;-0.038;2023-09-19T00:48:19;14.50;99.90
46231;DHT22;31949;51.404;-0.038;2023-09-19T00:50:49;14.40;99.90
46231;DHT22;31949;51.404;-0.038;2023-09-19T00:53:20;14.50;99.90
46231;DHT22;31949;51.404;-0.038;2023-09-19T00:55:50;14.50;99.90
46231;DHT22;31949;51.404;-0.038;2023-09-19T00:58:18;14.50;99.90
46231;DHT22;31949;51.404;-0.038;2023-09-19T01:00:48;14.50;99.90
46231;DHT22;31949;51.404;-0.038;2023-09-19T01:03:16;14.50;99.90
46231;DHT22;31949;51.404;-0.038;2023-09-19T01:05:45;14.50;99.90
46231;DHT22;31949;51.404;-0.038;2023-09-19T01:08:12;14.40;99.90
46231;DHT22;31949;51.404;-0.038;2023-09-19T01:10:46;14.40;99.90
46231;DHT22;31949;51.404;-0.038;2023-09-19T01:13:29;14.50;99.90
46231;DHT22;31949;51.404;-0.038;2023-09-19T01:18:35;14.40;99.90
46231;DHT22;31949;51.404;-0.038;2023-09-19T01:21:26;14.40;99.90
46231;DHT22;31949;51.404;-0.038;2023-09-19T01:29:42;14.40;99.90
46231;DHT22;31949;51.404;-0.038;2023-09-19T01:32:15;14.40;99.90
46231;DHT22;31949;51.404;-0.038;2023-09-19T01:34:47;14.40;99.90
46231;DHT22;31949;51.404;-0.038;2023-09-19T01:37:16;14.40;99.90
46231;DHT22;31949;51.404;-0.038;2023-09-19T01:39:53;14.40;99.90
46231;DHT22;31949;51.404;-0.038;2023-09-19T01:45:13;14.40;99.90
46231;DHT22;31949;51.404;-0.038;2023-09-19T01:47:52;14.40;99.90
46231;DHT22;31949;51.404;-0.038;2023-09-19T01:50:42;14.40;99.90
46231;DHT22;31949;51.404;-0.038;2023-09-19T01:53:19;14.40;99.90
46231;DHT22;31949;51.404;-0.038;2023-09-19T01:55:49;14.40;99.90
46231;DHT22;31949;51.404;-0.038;2023-09-19T01:58:32;14.40;99.90
46231;DHT22;31949;51.404;-0.038;2023-09-19T02:01:02;14.40;99.90
46231;DHT22;31949;51.404;-0.038;2023-09-19T02:03:31;14.40;99.90
46231;DHT22;31949;51.404;-0.038;2023-09-19T02:05:59;14.40;99.90
46231;DHT22;31949;51.404;-0.038;2023-09-19T02:08:26;14.40;99.90
46231;DHT22;31949;51.404;-0.038;2023-09-19T02:10:53;14.40;99.90
46231;DHT22;31949;51.404;-0.038;2023-09-19T02:13:22;14.30;99.90
46231;DHT22;31949;51.404;-0.038;2023-09-19T02:15:52;14.40;99.90
46231;DHT22;31949;51.404;-0.038;2023-09-19T02:18:19;14.40;99.90
46231;DHT22;31949;51.404;-0.038;2023-09-19T02:20:47;14.40;99.90
46231;DHT22;31949;51.404;-0.038;2023-09-19T02:23:14;14.40;99.90
46231;DHT22;31949;51.404;-0.038;2023-09-19T02:25:42;14.40;99.90
46231;DHT22;31949;51.404;-0.038;2023-09-19T02:28:10;14.30;99.90
46231;DHT22;31949;51.404;-0.038;2023-09-19T02:30:38;14.30;99.90
46231;DHT22;31949;51.404;-0.038;2023-09-19T02:33:05;14.40;99.90
46231;DHT22;31949;51.404;-0.038;2023-09-19T02:35:33;14.40;99.90
46231;DHT22;31949;51.404;-0.038;2023-09-19T02:38:03;14.40;99.90
46231;DHT22;31949;51.404;-0.038;2023-09-19T02:40:34;14.40;99.90
46231;DHT22;31949;51.404;-0.038;2023-09-19T02:43:03;14.40;99.90
46231;DHT22;31949;51.404;-0.038;2023-09-19T02:45:31;14.40;99.90
46231;DHT22;31949;51.404;-0.038;2023-09-19T02:48:00;14.30;99.90
46231;DHT22;31949;51.404;-0.038;2023-09-19T02:50:29;14.40;99.90
46231;DHT22;31949;51.404;-0.038;2023-09-19T02:52:57;14.40;99.90
46231;DHT22;31949;51.404;-0.038;2023-09-19T02:55:24;14.40;99.90
46231;DHT22;31949;51.404;-0.038;2023-09-19T02:57:53;14.40;99.90
46231;DHT22;31949;51.404;-0.038;2023-09-19T03:00:24;14.40;99.90
46231;DHT22;31949;51.404;-0.038;2023-09-19T03:02:54;14.30;99.90
46231;DHT22;31949;51.404;-0.038;2023-09-19T03:05:23;14.40;99.90
46231;DHT22;31949;51.404;-0.038;2023-09-19T03:07:52;14.40;99.90
46231;DHT22;31949;51.404;-0.038;2023-09-19T03:10:21;14.40;99.90
46231;DHT22;31949;51.404;-0.038;2023-09-19T03:12:48;14.40;99.90
46231;DHT22;31949;51.404;-0.038;2023-09-19T03:15:17;14.40;99.90
46231;DHT22;31949;51.404;-0.038;2023-09-19T03:17:47;14.40;99.90
46231;DHT22;31949;51.404;-0.038;2023-09-19T03:20:19;14.40;99.90
46231;DHT22;31949;51.404;-0.038;2023-09-19T03:22:49;14.30;99.90
46231;DHT22;31949;51.404;-0.038;2023-09-19T03:25:16;14.30;99.90
46231;DHT22;31949;51.404;-0.038;2023-09-19T03:27:47;14.30;99.90
46231;DHT22;31949;51.404;-0.038;2023-09-19T03:30:16;14.30;99.90
46231;DHT22;31949;51.404;-0.038;2023-09-19T03:32:47;14.30;99.90
46231;DHT22;31949;51.404;-0.038;2023-09-19T03:35:18;14.20;99.90
46231;DHT22;31949;51.404;-0.038;2023-09-19T03:37:46;14.20;99.90
46231;DHT22;31949;51.404;-0.038;2023-09-19T03:40:14;14.20;99.90
46231;DHT22;31949;51.404;-0.038;2023-09-19T03:42:43;14.20;99.90
46231;DHT22;31949;51.404;-0.038;2023-09-19T03:45:12;14.10;99.90
46231;DHT22;31949;51.404;-0.038;2023-09-19T03:47:45;14.10;99.90
46231;DHT22;31949;51.404;-0.038;2023-09-19T03:50:18;14.10;99.90
46231;DHT22;31949;51.404;-0.038;2023-09-19T03:52:45;14.00;99.90
46231;DHT22;31949;51.404;-0.038;2023-09-19T03:55:13;14.00;99.90
46231;DHT22;31949;51.404;-0.038;2023-09-19T03:57:40;14.00;99.90
46231;DHT22;31949;51.404;-0.038;2023-09-19T04:00:09;14.00;99.90
46231;DHT22;31949;51.404;-0.038;2023-09-19T04:02:40;14.00;99.90
46231;DHT22;31949;51.404;-0.038;2023-09-19T04:05:08;14.00;99.90
46231;DHT22;31949;51.404;-0.038;2023-09-19T04:07:36;14.00;99.90
46231;DHT22;31949;51.404;-0.038;2023-09-19T04:10:04;14.00;99.90
46231;DHT22;31949;51.404;-0.038;2023-09-19T04:12:31;14.00;99.90
46231;DHT22;31949;51.404;-0.038;2023-09-19T04:15:00;14.00;99.90
46231;DHT22;31949;51.404;-0.038;2023-09-19T04:17:29;14.00;99.90
46231;DHT22;31949;51.404;-0.038;2023-09-19T04:19:57;14.10;99.90
46231;DHT22;31949;51.404;-0.038;2023-09-19T04:22:25;14.10;99.90
46231;DHT22;31949;51.404;-0.038;2023-09-19T04:24:52;14.10;99.90
46231;DHT22;31949;51.404;-0.038;2023-09-19T04:27:19;14.10;99.90
46231;DHT22;31949;51.404;-0.038;2023-09-19T04:29:46;14.10;99.90
46231;DHT22;31949;51.404;-0.038;2023-09-19T04:32:13;14.10;99.90
46231;DHT22;31949;51.404;-0.038;2023-09-19T04:34:42;14.10;99.90
46231;DHT22;31949;51.404;-0.038;2023-09-19T04:37:10;14.20;99.90
46231;DHT22;31949;51.404;-0.038;2023-09-19T04:39:37;14.10;99.90
46231;DHT22;31949;51.404;-0.038;2023-09-19T04:42:05;14.10;99.90
46231;DHT22;31949;51.404;-0.038;2023-09-19T04:44:33;14.10;99.90
46231;DHT22;31949;51.404;-0.038;2023-09-19T04:47:00;14.10;99.90
46231;DHT22;31949;51.404;-0.038;2023-09-19T04:49:27;14.10;99.90
46231;DHT22;31949;51.404;-0.038;2023-09-19T04:51:54;14.10;99.90
46231;DHT22;31949;51.404;-0.038;2023-09-19T04:54:23;14.10;99.90
46231;DHT22;31949;51.404;-0.038;2023-09-19T04:56:50;14.10;99.90
46231;DHT22;31949;51.404;-0.038;2023-09-19T04:59:17;14.20;99.90
46231;DHT22;31949;51.404;-0.038;2023-09-19T05:01:44;14.20;99.90
46231;DHT22;31949;51.404;-0.038;2023-09-19T05:04:11;14.20;99.90
46231;DHT22;31949;51.404;-0.038;2023-09-19T05:06:38;14.20;99.90
46231;DHT22;31949;51.404;-0.038;2023-09-19T05:09:06;14.20;99.90
46231;DHT22;31949;51.404;-0.038;2023-09-19T05:11:33;14.30;99.90
46231;DHT22;31949;51.404;-0.038;2023-09-19T05:14:01;14.40;99.90
46231;DHT22;31949;51.404;-0.038;2023-09-19T05:16:30;14.30;99.90
46231;DHT22;31949;51.404;-0.038;2023-09-19T05:19:01;14.40;99.90
46231;DHT22;31949;51.404;-0.038;2023-09-19T05:21:30;14.40;99.90
46231;DHT22;31949;51.404;-0.038;2023-09-19T05:23:58;14.50;99.90
46231;DHT22;31949;51.404;-0.038;2023-09-19T05:26:25;14.40;99.90
46231;DHT22;31949;51.404;-0.038;2023-09-19T05:28:52;14.50;99.90
46231;DHT22;31949;51.404;-0.038;2023-09-19T05:31:20;14.50;99.90
46231;DHT22;31949;51.404;-0.038;2023-09-19T05:33:47;14.50;99.90
46231;DHT22;31949;51.404;-0.038;2023-09-19T05:36:14;14.60;99.90
46231;DHT22;31949;51.404;-0.038;2023-09-19T05:38:43;14.60;99.90
46231;DHT22;31949;51.404;-0.038;2023-09-19T05:41:11;14.60;99.90
46231;DHT22;31949;51.404;-0.038;2023-09-19T05:43:41;14.60;99.90
46231;DHT22;31949;51.404;-0.038;2023-09-19T05:46:09;14.60;99.90
46231;DHT22;31949;51.404;-0.038;2023-09-19T05:48:36;14.70;99.90
46231;DHT22;31949;51.404;-0.038;2023-09-19T05:51:06;14.80;99.90
46231;DHT22;31949;51.404;-0.038;2023-09-19T05:53:33;14.80;99.90
46231;DHT22;31949;51.404;-0.038;2023-09-19T05:56:01;14.90;99.90
46231;DHT22;31949;51.404;-0.038;2023-09-19T05:58:28;14.90;99.90
46231;DHT22;31949;51.404;-0.038;2023-09-19T06:00:55;15.00;99.90
46231;DHT22;31949;51.404;-0.038;2023-09-19T06:03:24;15.00;99.90
46231;DHT22;31949;51.404;-0.038;2023-09-19T06:05:51;15.10;99.90
46231;DHT22;31949;51.404;-0.038;2023-09-19T06:08:19;15.20;99.90
46231;DHT22;31949;51.404;-0.038;2023-09-19T06:10:47;15.20;99.90
46231;DHT22;31949;51.404;-0.038;2023-09-19T06:13:16;15.20;99.90
46231;DHT22;31949;51.404;-0.038;2023-09-19T06:15:43;15.20;99.90
46231;DHT22;31949;51.404;-0.038;2023-09-19T06:18:11;15.20;99.90
46231;DHT22;31949;51.404;-0.038;2023-09-19T06:20:44;15.30;99.90
46231;DHT22;31949;51.404;-0.038;2023-09-19T06:23:12;15.40;99.90
46231;DHT22;31949;51.404;-0.038;2023-09-19T06:25:39;15.40;99.90
46231;DHT22;31949;51.404;-0.038;2023-09-19T06:28:07;15.50;99.90
46231;DHT22;31949;51.404;-0.038;2023-09-19T06:30:38;15.60;99.90
46231;DHT22;31949;51.404;-0.038;2023-09-19T06:33:09;15.60;99.90
46231;DHT22;31949;51.404;-0.038;2023-09-19T06:35:42;15.60;99.90
46231;DHT22;31949;51.404;-0.038;2023-09-19T06:38:13;15.60;99.90
46231;DHT22;31949;51.404;-0.038;2023-09-19T06:40:42;15.60;99.90
46231;DHT22;31949;51.404;-0.038;2023-09-19T06:43:10;15.50;99.90
46231;DHT22;31949;51.404;-0.038;2023-09-19T06:45:38;15.50;99.90
46231;DHT22;31949;51.404;-0.038;2023-09-19T06:48:05;15.50;99.90
46231;DHT22;31949;51.404;-0.038;2023-09-19T06:50:33;15.50;99.90
46231;DHT22;31949;51.404;-0.038;2023-09-19T06:53:01;15.50;99.90
46231;DHT22;31949;51.404;-0.038;2023-09-19T06:55:29;15.50;99.90
46231;DHT22;31949;51.404;-0.038;2023-09-19T06:57:59;15.60;99.90
46231;DHT22;31949;51.404;-0.038;2023-09-19T07:00:27;15.60;99.90
46231;DHT22;31949;51.404;-0.038;2023-09-19T07:03:00;15.70;99.90
46231;DHT22;31949;51.404;-0.038;2023-09-19T07:05:35;15.90;99.90
46231;DHT22;31949;51.404;-0.038;2023-09-19T07:08:07;15.90;99.90
46231;DHT22;31949;51.404;-0.038;2023-09-19T07:10:36;16.00;99.90
46231;DHT22;31949;51.404;-0.038;2023-09-19T07:13:05;16.00;99.90
46231;DHT22;31949;51.404;-0.038;2023-09-19T07:15:37;16.00;99.90
46231;DHT22;31949;51.404;-0.038;2023-09-19T07:18:15;16.00;99.90
46231;DHT22;31949;51.404;-0.038;2023-09-19T07:20:45;16.10;99.90
46231;DHT22;31949;51.404;-0.038;2023-09-19T07:23:20;16.10;99.90
46231;DHT22;31949;51.404;-0.038;2023-09-19T07:25:48;16.20;99.90
46231;DHT22;31949;51.404;-0.038;2023-09-19T07:28:16;16.30;99.90
46231;DHT22;31949;51.404;-0.038;2023-09-19T07:30:43;16.30;99.90
46231;DHT22;31949;51.404;-0.038;2023-09-19T07:33:11;16.30;99.90
46231;DHT22;31949;51.404;-0.038;2023-09-19T07:35:39;16.40;99.90
46231;DHT22;31949;51.404;-0.038;2023-09-19T07:38:09;16.40;99.90
46231;DHT22;31949;51.404;-0.038;2023-09-19T07:40:41;16.40;99.90
46231;DHT22;31949;51.404;-0.038;2023-09-19T07:43:08;16.50;99.90
46231;DHT22;31949;51.404;-0.038;2023-09-19T07:45:36;16.50;99.90
46231;DHT22;31949;51.404;-0.038;2023-09-19T07:48:04;16.60;99.90
46231;DHT22;31949;51.404;-0.038;2023-09-19T07:50:36;16.60;99.90
46231;DHT22;31949;51.404;-0.038;2023-09-19T07:53:03;16.60;99.90
46231;DHT22;31949;51.404;-0.038;2023-09-19T07:55:32;16.60;99.90
46231;DHT22;31949;51.404;-0.038;2023-09-19T07:58:01;16.70;99.90
46231;DHT22;31949;51.404;-0.038;2023-09-19T08:00:31;16.80;99.90
46231;DHT22;31949;51.404;-0.038;2023-09-19T08:03:02;16.80;99.90
46231;DHT22;31949;51.404;-0.038;2023-09-19T08:05:44;16.80;99.90
46231;DHT22;31949;51.404;-0.038;2023-09-19T08:08:12;16.80;99.90
46231;DHT22;31949;51.404;-0.038;2023-09-19T08:10:42;16.80;99.90
46231;DHT22;31949;51.404;-0.038;2023-09-19T08:13:13;16.80;99.90
46231;DHT22;31949;51.404;-0.038;2023-09-19T08:15:45;16.70;99.90
46231;DHT22;31949;51.404;-0.038;2023-09-19T08:18:16;16.70;99.90
46231;DHT22;31949;51.404;-0.038;2023-09-19T08:20:48;16.80;99.90
46231;DHT22;31949;51.404;-0.038;2023-09-19T08:23:15;16.80;99.90
46231;DHT22;31949;51.404;-0.038;2023-09-19T08:25:45;16.80;99.90
46231;DHT22;31949;51.404;-0.038;2023-09-19T08:28:14;16.80;99.90
46231;DHT22;31949;51.404;-0.038;2023-09-19T08:30:46;16.70;99.90
46231;DHT22;31949;51.404;-0.038;2023-09-19T08:33:13;16.80;99.90
46231;DHT22;31949;51.404;-0.038;2023-09-19T08:35:42;16.70;99.90
46231;DHT22;31949;51.404;-0.038;2023-09-19T08:38:10;16.70;99.90
46231;DHT22;31949;51.404;-0.038;2023-09-19T08:40:39;16.70;99.90
46231;DHT22;31949;51.404;-0.038;2023-09-19T08:43:16;16.90;99.90
46231;DHT22;31949;51.404;-0.038;2023-09-19T08:45:44;17.00;99.90
46231;DHT22;31949;51.404;-0.038;2023-09-19T08:51:03;17.20;99.90
46231;DHT22;31949;51.404;-0.038;2023-09-19T08:53:41;17.30;99.90
46231;DHT22;31949;51.404;-0.038;2023-09-19T08:56:17;17.40;99.90
46231;DHT22;31949;51.404;-0.038;2023-09-19T08:58:52;17.50;99.90
46231;DHT22;31949;51.404;-0.038;2023-09-19T09:01:20;17.60;99.90
46231;DHT22;31949;51.404;-0.038;2023-09-19T09:03:55;17.70;99.90
46231;DHT22;31949;51.404;-0.038;2023-09-19T09:06:24;17.70;99.90
46231;DHT22;31949;51.404;-0.038;2023-09-19T09:08:52;17.80;99.90
46231;DHT22;31949;51.404;-0.038;2023-09-19T09:11:20;17.90;99.90
46231;DHT22;31949;51.404;-0.038;2023-09-19T09:13:48;18.00;99.90
46231;DHT22;31949;51.404;-0.038;2023-09-19T09:16:15;18.00;99.90
46231;DHT22;31949;51.404;-0.038;2023-09-19T09:18:49;18.10;99.90
46231;DHT22;31949;51.404;-0.038;2023-09-19T09:21:21;18.10;99.90
46231;DHT22;31949;51.404;-0.038;2023-09-19T09:23:49;18.00;99.90
46231;DHT22;31949;51.404;-0.038;2023-09-19T09:29:05;18.10;99.90
46231;DHT22;31949;51.404;-0.038;2023-09-19T09:31:35;18.20;99.90
46231;DHT22;31949;51.404;-0.038;2023-09-19T09:34:05;18.30;99.90
46231;DHT22;31949;51.404;-0.038;2023-09-19T09:36:38;18.30;99.90
46231;DHT22;31949;51.404;-0.038;2023-09-19T09:39:06;18.30;99.90
46231;DHT22;31949;51.404;-0.038;2023-09-19T09:41:51;18.30;99.90
46231;DHT22;31949;51.404;-0.038;2023-09-19T09:44:19;18.30;99.90
46231;DHT22;31949;51.404;-0.038;2023-09-19T09:46:48;18.30;99.90
46231;DHT22;31949;51.404;-0.038;2023-09-19T09:49:26;18.30;99.90
46231;DHT22;31949;51.404;-0.038;2023-09-19T09:54:29;18.30;99.90
46231;DHT22;31949;51.404;-0.038;2023-09-19T09:57:08;18.40;99.90
46231;DHT22;31949;51.404;-0.038;2023-09-19T09:59:48;18.40;99.90
46231;DHT22;31949;51.404;-0.038;2023-09-19T10:02:30;18.40;99.90
46231;DHT22;31949;51.404;-0.038;2023-09-19T10:05:24;18.30;99.90
46231;DHT22;31949;51.404;-0.038;2023-09-19T10:08:10;18.30;99.90
46231;DHT22;31949;51.404;-0.038;2023-09-19T10:10:40;18.40;99.90
46231;DHT22;31949;51.404;-0.038;2023-09-19T10:13:14;18.60;99.90
46231;DHT22;31949;51.404;-0.038;2023-09-19T10:15:48;18.60;99.90
46231;DHT22;31949;51.404;-0.038;2023-09-19T10:18:24;18.70;99.90
46231;DHT22;31949;51.404;-0.038;2023-09-19T10:20:52;18.60;99.90
46231;DHT22;31949;51.404;-0.038;2023-09-19T10:23:21;18.60;99.90
46231;DHT22;31949;51.404;-0.038;2023-09-19T10:25:55;18.60;99.90
46231;DHT22;31949;51.404;-0.038;2023-09-19T10:28:28;18.50;99.90
46231;DHT22;31949;51.404;-0.038;2023-09-19T10:30:57;18.50;99.90
46231;DHT22;31949;51.404;-0.038;2023-09-19T10:33:25;18.60;99.90
46231;DHT22;31949;51.404;-0.038;2023-09-19T10:35:59;18.60;99.90
46231;DHT22;31949;51.404;-0.038;2023-09-19T10:38:27;18.60;99.90
46231;DHT22;31949;51.404;-0.038;2023-09-19T10:40:57;18.70;99.90
46231;DHT22;31949;51.404;-0.038;2023-09-19T10:43:33;18.80;99.90
46231;DHT22;31949;51.404;-0.038;2023-09-19T10:46:08;19.00;99.90
46231;DHT22;31949;51.404;-0.038;2023-09-19T10:48:42;19.10;99.90
46231;DHT22;31949;51.404;-0.038;2023-09-19T10:51:18;19.20;99.90
46231;DHT22;31949;51.404;-0.038;2023-09-19T10:54:04;19.30;99.90
46231;DHT22;31949;51.404;-0.038;2023-09-19T10:56:36;19.30;99.90
46231;DHT22;31949;51.404;-0.038;2023-09-19T10:59:13;19.40;99.90
46231;DHT22;31949;51.404;-0.038;2023-09-19T11:01:54;19.50;99.90
46231;DHT22;31949;51.404;-0.038;2023-09-19T11:04:33;19.50;99.90
46231;DHT22;31949;51.404;-0.038;2023-09-19T11:07:12;19.50;99.90
46231;DHT22;31949;51.404;-0.038;2023-09-19T11:09:55;19.50;99.90
46231;DHT22;31949;51.404;-0.038;2023-09-19T11:16:34;19.50;99.90
46231;DHT22;31949;51.404;-0.038;2023-09-19T11:18:51;19.30;99.90
46231;DHT22;31949;51.404;-0.038;2023-09-19T11:26:49;19.20;99.90
46231;DHT22;31949;51.404;-0.038;2023-09-19T11:29:29;19.10;99.90
46231;DHT22;31949;51.404;-0.038;2023-09-19T11:31:58;19.10;99.90
46231;DHT22;31949;51.404;-0.038;2023-09-19T11:42:47;18.90;99.90
46231;DHT22;31949;51.404;-0.038;2023-09-19T11:48:26;19.10;99.90
46231;DHT22;31949;51.404;-0.038;2023-09-19T11:50:54;19.10;99.90
46231;DHT22;31949;51.404;-0.038;2023-09-19T11:53:23;19.10;99.90
46231;DHT22;31949;51.404;-0.038;2023-09-19T11:55:51;19.00;99.90
46231;DHT22;31949;51.404;-0.038;2023-09-19T11:58:22;19.00;99.90
46231;DHT22;31949;51.404;-0.038;2023-09-19T12:00:55;18.90;99.90
46231;DHT22;31949;51.404;-0.038;2023-09-19T12:03:29;18.90;99.90
46231;DHT22;31949;51.404;-0.038;2023-09-19T12:06:11;18.90;99.90
46231;DHT22;31949;51.404;-0.038;2023-09-19T12:08:44;18.80;99.90
46231;DHT22;31949;51.404;-0.038;2023-09-19T12:11:14;18.80;99.90
46231;DHT22;31949;51.404;-0.038;2023-09-19T12:13:46;18.80;99.90
46231;DHT22;31949;51.404;-0.038;2023-09-19T12:16:17;18.80;99.90
46231;DHT22;31949;51.404;-0.038;2023-09-19T12:18:50;18.80;99.90
46231;DHT22;31949;51.404;-0.038;2023-09-19T12:21:28;18.80;99.90
46231;DHT22;31949;51.404;-0.038;2023-09-19T12:24:06;18.80;99.90
46231;DHT22;31949;51.404;-0.038;2023-09-19T12:26:44;18.70;99.90
46231;DHT22;31949;51.404;-0.038;2023-09-19T12:29:15;18.60;99.90
46231;DHT22;31949;51.404;-0.038;2023-09-19T12:31:55;18.60;99.90
46231;DHT22;31949;51.404;-0.038;2023-09-19T12:34:27;18.60;99.90
46231;DHT22;31949;51.404;-0.038;2023-09-19T12:37:07;18.60;99.90
46231;DHT22;31949;51.404;-0.038;2023-09-19T12:40:06;18.70;99.90
46231;DHT22;31949;51.404;-0.038;2023-09-19T12:42:49;18.60;99.90
46231;DHT22;31949;51.404;-0.038;2023-09-19T12:45:17;18.60;99.90
46231;DHT22;31949;51.404;-0.038;2023-09-19T12:51:09;18.80;99.90
46231;DHT22;31949;51.404;-0.038;2023-09-19T12:53:44;18.80;99.90
46231;DHT22;31949;51.404;-0.038;2023-09-19T12:56:17;18.70;99.90
46231;DHT22;31949;51.404;-0.038;2023-09-19T12:58:55;18.70;99.90
46231;DHT22;31949;51.404;-0.038;2023-09-19T13:01:25;18.80;99.90
46231;DHT22;31949;51.404;-0.038;2023-09-19T13:04:16;18.80;99.90
46231;DHT22;31949;51.404;-0.038;2023-09-19T13:06:51;18.80;99.90
46231;DHT22;31949;51.404;-0.038;2023-09-19T13:09:21;18.70;99.90
46231;DHT22;31949;51.404;-0.038;2023-09-19T13:11:48;18.70;99.90
46231;DHT22;31949;51.404;-0.038;2023-09-19T13:14:23;18.70;99.90
46231;DHT22;31949;51.404;-0.038;2023-09-19T13:17:00;18.70;99.90
46231;DHT22;31949;51.404;-0.038;2023-09-19T13:19:45;18.70;99.90
46231;DHT22;31949;51.404;-0.038;2023-09-19T13:22:36;18.60;99.90
46231;DHT22;31949;51.404;-0.038;2023-09-19T13:25:08;18.50;99.90
46231;DHT22;31949;51.404;-0.038;2023-09-19T13:27:39;18.60;99.90
46231;DHT22;31949;51.404;-0.038;2023-09-19T13:30:07;18.50;99.90
46231;DHT22;31949;51.404;-0.038;2023-09-19T13:32:34;18.50;99.90
46231;DHT22;31949;51.404;-0.038;2023-09-19T13:35:01;18.50;99.90
46231;DHT22;31949;51.404;-0.038;2023-09-19T13:37:29;18.50;99.90
46231;DHT22;31949;51.404;-0.038;2023-09-19T13:39:56;18.50;99.90
46231;DHT22;31949;51.404;-0.038;2023-09-19T13:42:24;18.50;99.90
46231;DHT22;31949;51.404;-0.038;2023-09-19T13:44:52;18.40;99.90
46231;DHT22;31949;51.404;-0.038;2023-09-19T13:47:20;18.40;99.90
46231;DHT22;31949;51.404;-0.038;2023-09-19T13:49:51;18.40;99.90
46231;DHT22;31949;51.404;-0.038;2023-09-19T13:52:20;18.50;99.90
46231;DHT22;31949;51.404;-0.038;2023-09-19T13:54:53;18.50;99.90
46231;DHT22;31949;51.404;-0.038;2023-09-19T13:57:20;18.40;99.90
46231;DHT22;31949;51.404;-0.038;2023-09-19T13:59:47;18.40;99.90
46231;DHT22;31949;51.404;-0.038;2023-09-19T14:02:15;18.40;99.90
46231;DHT22;31949;51.404;-0.038;2023-09-19T14:04:45;18.50;99.90
46231;DHT22;31949;51.404;-0.038;2023-09-19T14:07:12;18.40;99.90
46231;DHT22;31949;51.404;-0.038;2023-09-19T14:09:42;18.40;99.90
46231;DHT22;31949;51.404;-0.038;2023-09-19T14:12:10;18.40;99.90
46231;DHT22;31949;51.404;-0.038;2023-09-19T14:14:37;18.50;99.90
46231;DHT22;31949;51.404;-0.038;2023-09-19T14:17:04;18.60;99.90
46231;DHT22;31949;51.404;-0.038;2023-09-19T14:19:34;18.70;99.90
46231;DHT22;31949;51.404;-0.038;2023-09-19T14:22:04;18.80;99.90
46231;DHT22;31949;51.404;-0.038;2023-09-19T14:24:35;18.90;99.90
46231;DHT22;31949;51.404;-0.038;2023-09-19T14:27:03;18.90;99.90
46231;DHT22;31949;51.404;-0.038;2023-09-19T14:29:31;19.00;99.90
46231;DHT22;31949;51.404;-0.038;2023-09-19T14:31:59;19.00;99.90
46231;DHT22;31949;51.404;-0.038;2023-09-19T14:34:26;19.10;99.90
46231;DHT22;31949;51.404;-0.038;2023-09-19T14:36:54;19.10;99.90
46231;DHT22;31949;51.404;-0.038;2023-09-19T14:39:24;19.10;99.90
46231;DHT22;31949;51.404;-0.038;2023-09-19T14:41:52;19.10;99.90
46231;DHT22;31949;51.404;-0.038;2023-09-19T14:44:20;19.10;99.90
46231;DHT22;31949;51.404;-0.038;2023-09-19T14:46:47;19.20;99.90
46231;DHT22;31949;51.404;-0.038;2023-09-19T14:49:14;19.10;99.90
46231;DHT22;31949;51.404;-0.038;2023-09-19T14:51:43;19.10;99.90
46231;DHT22;31949;51.404;-0.038;2023-09-19T14:54:11;19.10;99.90
46231;DHT22;31949;51.404;-0.038;2023-09-19T14:56:38;19.10;99.90
46231;DHT22;31949;51.404;-0.038;2023-09-19T14:59:07;19.10;99.90
46231;DHT22;31949;51.404;-0.038;2023-09-19T15:01:35;19.10;99.90
46231;DHT22;31949;51.404;-0.038;2023-09-19T15:04:02;19.10;99.90
46231;DHT22;31949;51.404;-0.038;2023-09-19T15:06:30;19.10;99.90
46231;DHT22;31949;51.404;-0.038;2023-09-19T15:08:57;19.00;99.90
46231;DHT22;31949;51.404;-0.038;2023-09-19T15:11:25;19.00;99.90
46231;DHT22;31949;51.404;-0.038;2023-09-19T15:13:52;19.10;99.90
46231;DHT22;31949;51.404;-0.038;2023-09-19T15:16:23;19.10;99.90
46231;DHT22;31949;51.404;-0.038;2023-09-19T15:18:50;19.00;99.90
46231;DHT22;31949;51.404;-0.038;2023-09-19T15:21:19;19.00;99.90
46231;DHT22;31949;51.404;-0.038;2023-09-19T15:23:46;19.10;99.90
46231;DHT22;31949;51.404;-0.038;2023-09-19T15:26:14;19.10;99.90
46231;DHT22;31949;51.404;-0.038;2023-09-19T15:28:48;19.10;99.90
46231;DHT22;31949;51.404;-0.038;2023-09-19T15:31:16;19.00;99.90
46231;DHT22;31949;51.404;-0.038;2023-09-19T15:33:48;19.10;99.90
46231;DHT22;31949;51.404;-0.038;2023-09-19T15:36:16;19.10;99.90
46231;DHT22;31949;51.404;-0.038;2023-09-19T15:39:01;19.10;99.90
46231;DHT22;31949;51.404;-0.038;2023-09-19T15:41:30;19.10;99.90
46231;DHT22;31949;51.404;-0.038;2023-09-19T15:43:59;19.10;99.90
46231;DHT22;31949;51.404;-0.038;2023-09-19T15:46:29;19.10;99.90
46231;DHT22;31949;51.404;-0.038;2023-09-19T15:48:57;19.20;99.90
46231;DHT22;31949;51.404;-0.038;2023-09-19T15:51:25;19.10;99.90
46231;DHT22;31949;51.404;-0.038;2023-09-19T15:53:53;19.20;99.90
46231;DHT22;31949;51.404;-0.038;2023-09-19T15:56:22;19.10;99.90
46231;DHT22;31949;51.404;-0.038;2023-09-19T15:58:51;19.10;99.90
46231;DHT22;31949;51.404;-0.038;2023-09-19T16:01:19;19.00;99.90
46231;DHT22;31949;51.404;-0.038;2023-09-19T16:03:48;19.00;99.90
46231;DHT22;31949;51.404;-0.038;2023-09-19T16:06:19;19.00;99.90
46231;DHT22;31949;51.404;-0.038;2023-09-19T16:08:47;19.00;99.90
46231;DHT22;31949;51.404;-0.038;2023-09-19T16:11:16;19.00;99.90
46231;DHT22;31949;51.404;-0.038;2023-09-19T16:13:44;19.00;99.90
46231;DHT22;31949;51.404;-0.038;2023-09-19T16:16:17;19.00;99.90
46231;DHT22;31949;51.404;-0.038;2023-09-19T16:18:47;19.00;99.90